Terminal Aerodrome Forecast
Issued by NWS

Home | Current Version | Previous Version | Text Only | Print | Product List | Glossary On
Versions: 1 2 3 4 5 6 7 8 9 10 11 12 13 14 15 16 17 18 19 20
000
FTUS41 KPBZ 261100
TAFAGC
TAF
KAGC 261120Z 2612/2712 02003KT P6SM OVC120
     FM261500 01004KT 6SM -SN OVC035
     FM261700 02005KT 1SM -SN BR OVC007
     FM262000 35004KT 4SM -SN OVC010
     FM262200 33003KT P6SM OVC010=

USA.gov is the U.S. government's official web portal to all federal, state and local government web resources and services.